Idalia, Colorado
Current Conditions -  °F | °C
As of 9:55 AM on Friday 31 Oct 2014 (Local Time) from KSYF Reporting Station
Overcast Overcast  
Wind Chill: 26°   Ceiling: 700
Heat Index: 33°   Visibility: 10mi
Dew Point: 29°   Wind: 8mph
Humidity: 85%   Direction: 130°SE
Pressure: 30.5"   Gusts: NA
Location:  39.7°N, 102.29°W
Report Text: KSYF 311555Z AUTO 13007KT 10SM OVC007 01/M01 A3050 RMK AO2 T00071015
Loading
Personal Weather Stations






























Interactive Weather Map
Tropical Storm Tracking
New forecast layout! Learn more

10-Day Weather Forecast

Advertisements
Track Severe Weather on mobile